Time;durP1;ratioP1;P1;durP2;ratioP2;P2;SDS_P1;SDS_P2;PMS_P1;PMS_P2;Temp;Humidity;BMP_temperature;BMP_pressure;BME280_temperature;BME280_humidity;BME280_pressure;Samples;Min_cycle;Max_cycle;Signal;HPM_P1;HPM_P2
2023/05/28 00:01:33;;;;;;;1.65;0.60;;;14.00;99.90;;;;;;5087263;28;20206;-89
2023/05/28 00:04:04;;;;;;;0.55;0.55;;;14.10;99.90;;;;;;5076377;28;20199;-89
2023/05/28 00:06:35;;;;;;;1.05;0.60;;;14.10;99.90;;;;;;5076151;28;20192;-89
2023/05/28 00:09:14;;;;;;;0.40;0.32;;;14.10;99.90;;;;;;5089150;28;20206;-90
2023/05/28 00:11:46;;;;;;;0.73;0.45;;;14.10;99.90;;;;;;5076769;28;20203;-86
2023/05/28 00:14:18;;;;;;;1.23;0.60;;;14.10;99.90;;;;;;5075637;28;20206;-87
2023/05/28 00:17:03;;;;;;;1.95;0.90;;;14.20;99.90;;;;;;5074666;28;20196;-88
2023/05/28 00:22:17;;;;;;;0.82;0.52;;;14.40;99.90;;;;;;5073549;28;20200;-87
2023/05/28 00:24:52;;;;;;;1.13;0.70;;;14.40;99.90;;;;;;5072420;28;20202;-89
2023/05/28 00:27:24;;;;;;;0.65;0.40;;;14.60;99.90;;;;;;5072861;28;20625;-91
2023/05/28 00:29:57;;;;;;;2.05;0.60;;;14.70;99.90;;;;;;5075183;28;20231;-88
2023/05/28 00:32:28;;;;;;;0.93;0.50;;;14.70;99.90;;;;;;5075503;28;20591;-89
2023/05/28 00:35:02;;;;;;;1.20;0.50;;;14.90;99.90;;;;;;5073898;28;20211;-88
2023/05/28 00:37:33;;;;;;;1.55;0.50;;;14.90;99.90;;;;;;5073656;28;20192;-87
2023/05/28 00:40:09;;;;;;;0.50;0.50;;;15.00;99.90;;;;;;5072486;28;20208;-88
2023/05/28 00:42:40;;;;;;;1.23;0.50;;;15.00;99.90;;;;;;5071942;28;20609;-89
2023/05/28 00:45:12;;;;;;;0.77;0.50;;;15.00;99.90;;;;;;5071230;28;20486;-89
2023/05/28 00:47:44;;;;;;;1.35;0.43;;;15.00;99.90;;;;;;5072114;28;20227;-88
2023/05/28 00:50:16;;;;;;;1.00;0.57;;;15.10;99.90;;;;;;5072056;28;20191;-88
2023/05/28 00:52:53;;;;;;;0.82;0.50;;;15.30;99.90;;;;;;5072745;28;20204;-88
2023/05/28 00:55:27;;;;;;;1.15;0.40;;;15.30;99.90;;;;;;5074803;28;20203;-89
2023/05/28 00:58:05;;;;;;;0.40;0.30;;;15.50;99.90;;;;;;5077724;28;20209;-88
2023/05/28 01:00:38;;;;;;;0.30;0.22;;;15.50;99.90;;;;;;5077352;28;20188;-88
2023/05/28 01:03:10;;;;;;;1.33;0.50;;;15.60;99.90;;;;;;5077165;28;20475;-87
2023/05/28 01:05:42;;;;;;;0.38;0.38;;;15.60;99.90;;;;;;5077290;28;20570;-89
2023/05/28 01:08:13;;;;;;;1.05;0.30;;;15.60;99.90;;;;;;5076384;28;20273;-88
2023/05/28 01:10:47;;;;;;;1.45;1.35;;;15.70;99.90;;;;;;5077812;28;20192;-88
2023/05/28 01:13:19;;;;;;;0.52;0.40;;;15.70;99.90;;;;;;5077682;28;20206;-89
2023/05/28 01:15:50;;;;;;;1.20;0.40;;;15.80;99.90;;;;;;5075868;28;20196;-88
2023/05/28 01:18:24;;;;;;;0.45;0.30;;;15.80;99.90;;;;;;5076564;28;20687;-88
2023/05/28 01:20:55;;;;;;;0.30;0.28;;;15.80;99.90;;;;;;5089693;28;20192;-87
2023/05/28 01:23:29;;;;;;;1.45;0.30;;;15.90;99.90;;;;;;5075007;28;20673;-88
2023/05/28 01:26:03;;;;;;;2.20;0.30;;;15.90;99.90;;;;;;5075255;28;20199;-88
2023/05/28 01:28:34;;;;;;;0.57;0.30;;;16.00;99.90;;;;;;5075241;28;20223;-88
2023/05/28 01:31:06;;;;;;;1.20;0.32;;;16.10;99.90;;;;;;5075265;28;20226;-88
2023/05/28 01:33:38;;;;;;;0.95;0.30;;;16.10;99.90;;;;;;5075943;28;20255;-90
2023/05/28 01:36:13;;;;;;;0.40;0.40;;;16.10;99.90;;;;;;5075661;28;20208;-89
2023/05/28 01:38:52;;;;;;;2.35;0.50;;;16.10;99.90;;;;;;5075844;28;20179;-90
2023/05/28 01:41:26;;;;;;;0.77;0.30;;;16.00;99.90;;;;;;5075779;28;20188;-88
2023/05/28 01:44:01;;;;;;;0.40;0.40;;;16.10;99.90;;;;;;5075524;28;20654;-89
2023/05/28 01:46:33;;;;;;;0.38;0.38;;;16.10;99.90;;;;;;5074973;28;20282;-89
2023/05/28 01:49:07;;;;;;;0.88;0.60;;;16.10;99.90;;;;;;5075722;28;20769;-89
2023/05/28 01:51:38;;;;;;;0.75;0.50;;;16.20;99.90;;;;;;5075707;28;20214;-90
2023/05/28 01:54:18;;;;;;;1.02;0.80;;;16.10;99.90;;;;;;5076918;28;20268;-89
2023/05/28 01:56:52;;;;;;;3.30;1.10;;;16.10;99.90;;;;;;5076190;28;20200;-90
2023/05/28 01:59:23;;;;;;;1.17;0.60;;;16.20;99.90;;;;;;5075877;28;20221;-90
2023/05/28 02:01:56;;;;;;;0.68;0.60;;;16.30;99.90;;;;;;5076182;28;20200;-89
2023/05/28 02:04:28;;;;;;;1.63;0.60;;;16.20;99.90;;;;;;5074950;28;20196;-89
2023/05/28 02:06:59;;;;;;;0.82;0.60;;;16.10;99.90;;;;;;5074653;28;20227;-88
2023/05/28 02:09:30;;;;;;;0.88;0.63;;;16.10;99.90;;;;;;5075030;28;20220;-89
2023/05/28 02:12:05;;;;;;;1.95;1.00;;;16.10;99.90;;;;;;5074238;28;20681;-89
2023/05/28 02:14:40;;;;;;;1.40;0.95;;;16.20;99.90;;;;;;5070398;28;20226;-89
2023/05/28 02:17:12;;;;;;;0.50;0.50;;;16.20;99.90;;;;;;5058717;28;20238;-89
2023/05/28 02:19:43;;;;;;;2.00;0.80;;;16.30;99.90;;;;;;5062171;28;20207;-89
2023/05/28 02:22:16;;;;;;;1.10;0.68;;;16.20;99.90;;;;;;5055783;28;20231;-90
2023/05/28 02:24:47;;;;;;;0.50;0.47;;;16.30;99.90;;;;;;5054743;28;20208;-89
2023/05/28 02:27:21;;;;;;;0.80;0.40;;;16.40;99.90;;;;;;5054641;28;20197;-89
2023/05/28 02:29:53;;;;;;;0.98;0.70;;;16.40;99.90;;;;;;5057433;28;20255;-89
2023/05/28 02:32:25;;;;;;;0.73;0.60;;;16.50;99.90;;;;;;5074832;28;20281;-88
2023/05/28 02:34:57;;;;;;;1.25;0.60;;;16.70;99.90;;;;;;5074079;28;20219;-90
2023/05/28 02:37:32;;;;;;;0.40;0.35;;;16.70;99.60;;;;;;5074311;28;20195;-89
2023/05/28 02:40:03;;;;;;;1.08;0.43;;;16.70;99.70;;;;;;5085084;28;20281;-88
2023/05/28 02:42:36;;;;;;;1.45;0.57;;;16.60;99.90;;;;;;5077389;28;20261;-88
2023/05/28 02:45:08;;;;;;;1.40;0.80;;;16.70;99.90;;;;;;5073861;28;20202;-89
2023/05/28 02:47:39;;;;;;;0.68;0.60;;;16.60;99.70;;;;;;5077431;28;20573;-90
2023/05/28 02:50:12;;;;;;;0.60;0.50;;;16.60;99.60;;;;;;5076253;28;20192;-89
2023/05/28 02:52:44;;;;;;;1.63;0.70;;;16.60;99.70;;;;;;5074192;28;20647;-89
2023/05/28 02:55:16;;;;;;;0.60;0.60;;;16.50;99.40;;;;;;5073486;28;20207;-89
2023/05/28 02:57:52;;;;;;;1.02;0.60;;;16.50;99.70;;;;;;5073578;28;20210;-88
2023/05/28 03:00:23;;;;;;;0.47;0.40;;;16.60;99.80;;;;;;5062599;28;20200;-89
2023/05/28 03:02:56;;;;;;;2.00;0.70;;;16.60;99.50;;;;;;5053692;28;20197;-88
2023/05/28 03:05:28;;;;;;;0.30;0.30;;;16.70;99.40;;;;;;5069468;28;20202;-89
2023/05/28 03:08:01;;;;;;;0.85;0.63;;;16.80;98.80;;;;;;5074011;28;20706;-89
2023/05/28 03:10:33;;;;;;;2.08;0.60;;;16.80;99.10;;;;;;5072960;28;20226;-89
2023/05/28 03:13:06;;;;;;;0.90;0.55;;;16.90;99.30;;;;;;5075045;28;20211;-90
2023/05/28 03:15:38;;;;;;;2.25;0.85;;;16.90;99.30;;;;;;5073951;28;20199;-90
2023/05/28 03:18:10;;;;;;;1.35;0.75;;;17.00;98.80;;;;;;5073727;28;20287;-88
2023/05/28 03:20:42;;;;;;;1.50;1.00;;;17.00;98.70;;;;;;5073648;28;20204;-88
2023/05/28 03:23:15;;;;;;;3.10;1.30;;;17.20;98.70;;;;;;5075778;28;20195;-89
2023/05/28 03:25:47;;;;;;;1.10;0.60;;;17.20;97.90;;;;;;5077353;28;20206;-89
2023/05/28 03:28:20;;;;;;;0.75;0.50;;;17.20;98.40;;;;;;5077203;28;20233;-88
2023/05/28 03:30:51;;;;;;;0.43;0.40;;;17.30;98.40;;;;;;5075534;28;20232;-88
2023/05/28 03:33:22;;;;;;;1.70;0.60;;;17.30;98.80;;;;;;5074976;28;20218;-88
2023/05/28 03:35:58;;;;;;;0.68;0.68;;;17.40;99.30;;;;;;5075440;28;20202;-88
2023/05/28 03:38:32;;;;;;;1.00;0.73;;;17.40;98.50;;;;;;5075221;28;20211;-88
2023/05/28 03:41:04;;;;;;;1.23;0.60;;;17.30;97.80;;;;;;5074988;28;20252;-88
2023/05/28 03:43:39;;;;;;;0.40;0.40;;;17.40;98.70;;;;;;5073122;28;20200;-88
2023/05/28 03:46:11;;;;;;;1.58;0.70;;;17.40;98.60;;;;;;5072404;28;20603;-87
2023/05/28 03:48:43;;;;;;;0.60;0.50;;;17.40;99.20;;;;;;5055873;28;20224;-88
2023/05/28 03:51:14;;;;;;;1.77;0.60;;;17.40;99.00;;;;;;5054051;28;20574;-89
2023/05/28 03:53:47;;;;;;;0.60;0.50;;;17.40;98.50;;;;;;5057071;28;20686;-88
2023/05/28 03:56:18;;;;;;;1.20;0.52;;;17.40;98.10;;;;;;5072905;28;20204;-88
2023/05/28 03:58:55;;;;;;;2.95;0.57;;;17.50;98.10;;;;;;5081317;28;20196;-89
2023/05/28 04:01:28;;;;;;;2.80;0.65;;;17.50;98.00;;;;;;5091743;28;20196;-88
2023/05/28 04:03:59;;;;;;;0.60;0.60;;;17.40;98.00;;;;;;5075059;28;20184;-87
2023/05/28 04:06:30;;;;;;;1.33;0.65;;;17.40;98.00;;;;;;5074613;28;20192;-88
2023/05/28 04:09:03;;;;;;;0.77;0.50;;;17.30;98.30;;;;;;5075531;28;20219;-88
2023/05/28 04:11:37;;;;;;;0.52;0.50;;;17.30;98.10;;;;;;5078783;28;20195;-88
2023/05/28 04:14:20;;;;;;;0.60;0.57;;;17.40;98.50;;;;;;5054598;28;20587;-89
2023/05/28 04:16:53;;;;;;;1.27;0.60;;;17.40;98.40;;;;;;5055344;28;20195;-89
2023/05/28 04:19:25;;;;;;;0.60;0.60;;;17.50;98.60;;;;;;5055426;28;20643;-87
2023/05/28 04:21:57;;;;;;;1.45;0.70;;;17.60;98.50;;;;;;5053446;28;20206;-87
2023/05/28 04:24:29;;;;;;;0.85;0.60;;;17.70;98.30;;;;;;5053370;28;20200;-88
2023/05/28 04:27:04;;;;;;;2.30;0.50;;;17.70;98.60;;;;;;5066114;28;20223;-88
2023/05/28 04:29:37;;;;;;;1.23;0.60;;;17.70;98.20;;;;;;5065501;28;20235;-89
2023/05/28 04:32:09;;;;;;;1.50;0.80;;;17.70;98.40;;;;;;5060948;28;20211;-87
2023/05/28 04:34:42;;;;;;;1.35;0.60;;;17.70;98.80;;;;;;5079261;28;20199;-88
2023/05/28 04:37:13;;;;;;;1.05;0.80;;;17.60;99.60;;;;;;5077991;28;20269;-88
2023/05/28 04:39:45;;;;;;;0.65;0.47;;;17.60;99.30;;;;;;5077370;28;20213;-88
2023/05/28 04:42:24;;;;;;;1.05;0.95;;;17.60;99.60;;;;;;5083092;28;20210;-88
2023/05/28 04:45:09;;;;;;;1.95;0.70;;;17.50;98.70;;;;;;5086985;28;20571;-89
2023/05/28 04:47:43;;;;;;;1.88;0.60;;;17.40;99.40;;;;;;5087656;28;20202;-88
2023/05/28 04:50:26;;;;;;;6.68;3.65;;;17.40;99.50;;;;;;5086918;28;20257;-88
2023/05/28 04:52:59;;;;;;;0.88;0.80;;;17.40;99.20;;;;;;5080326;28;20200;-88
2023/05/28 04:55:31;;;;;;;0.75;0.70;;;17.30;99.90;;;;;;5061028;28;20203;-88
2023/05/28 04:58:02;;;;;;;1.10;0.70;;;17.30;99.90;;;;;;5080591;28;20705;-84
2023/05/28 05:00:36;;;;;;;1.80;0.85;;;17.30;99.90;;;;;;5097401;28;20196;-85
2023/05/28 05:03:08;;;;;;;2.95;0.80;;;17.30;99.90;;;;;;5096770;28;20195;-87
2023/05/28 05:05:40;;;;;;;1.65;0.35;;;17.30;99.90;;;;;;5094566;28;20204;-87
2023/05/28 05:08:13;;;;;;;2.33;0.63;;;17.30;98.40;;;;;;5077530;28;20748;-88
2023/05/28 05:10:47;;;;;;;1.60;0.57;;;17.30;98.50;;;;;;5077355;28;20612;-89
2023/05/28 05:13:18;;;;;;;0.93;0.70;;;17.20;98.40;;;;;;5076437;28;20203;-89
2023/05/28 05:15:51;;;;;;;1.20;1.02;;;17.30;97.20;;;;;;5076119;28;20676;-89
2023/05/28 05:18:22;;;;;;;2.38;1.95;;;17.40;97.10;;;;;;5076157;28;20231;-89
2023/05/28 05:20:55;;;;;;;1.92;1.10;;;17.50;97.20;;;;;;5088616;28;20202;-88
2023/05/28 05:23:26;;;;;;;0.47;0.40;;;17.60;96.60;;;;;;5075267;28;20670;-87
2023/05/28 05:25:57;;;;;;;1.15;0.60;;;17.60;96.60;;;;;;5076105;28;20536;-88
2023/05/28 05:28:29;;;;;;;0.60;0.45;;;17.70;96.00;;;;;;5075521;28;20196;-88
2023/05/28 05:31:04;;;;;;;1.13;0.80;;;17.70;95.70;;;;;;5076124;28;20212;-88
2023/05/28 05:33:35;;;;;;;0.30;0.28;;;17.70;95.90;;;;;;5075888;28;20198;-89
2023/05/28 05:36:06;;;;;;;0.30;0.30;;;17.60;95.20;;;;;;5075663;28;20228;-88
2023/05/28 05:38:37;;;;;;;0.90;0.40;;;17.60;95.20;;;;;;5075682;28;20211;-88
2023/05/28 05:41:12;;;;;;;0.40;0.40;;;17.50;95.80;;;;;;5075120;28;20226;-88
2023/05/28 05:43:43;;;;;;;0.30;0.30;;;17.40;95.80;;;;;;5076012;28;20220;-88
2023/05/28 05:46:17;;;;;;;0.30;0.30;;;17.50;95.70;;;;;;5075218;28;20200;-89
2023/05/28 05:48:52;;;;;;;0.40;0.40;;;17.40;95.60;;;;;;5075313;28;20229;-88
2023/05/28 05:51:24;;;;;;;0.20;0.20;;;17.40;96.00;;;;;;5074884;28;20191;-89
2023/05/28 05:53:55;;;;;;;0.50;0.50;;;17.40;96.10;;;;;;5074888;28;20200;-89
2023/05/28 05:56:27;;;;;;;0.95;0.40;;;17.40;96.60;;;;;;5074866;28;20196;-89
2023/05/28 05:58:58;;;;;;;1.60;0.50;;;17.30;96.50;;;;;;5074638;28;20234;-89
2023/05/28 06:01:32;;;;;;;0.60;0.60;;;17.30;96.50;;;;;;5074893;28;20196;-88
2023/05/28 06:04:03;;;;;;;0.65;0.43;;;17.20;97.00;;;;;;5075367;28;20250;-88
2023/05/28 06:06:36;;;;;;;0.95;0.70;;;17.20;97.10;;;;;;5073676;28;20226;-88
2023/05/28 06:09:08;;;;;;;0.90;0.50;;;17.20;97.00;;;;;;5074626;28;20238;-88
2023/05/28 06:11:40;;;;;;;0.50;0.50;;;17.10;97.40;;;;;;5074393;28;20204;-88
2023/05/28 06:14:11;;;;;;;0.60;0.60;;;17.00;97.70;;;;;;5074185;28;20647;-87
2023/05/28 06:16:45;;;;;;;1.13;1.02;;;17.00;97.90;;;;;;5074146;28;20350;-87
2023/05/28 06:19:16;;;;;;;2.10;0.77;;;16.90;98.30;;;;;;5074527;28;20656;-88
2023/05/28 06:21:48;;;;;;;0.60;0.60;;;16.90;98.50;;;;;;5074440;28;20749;-88
2023/05/28 06:24:19;;;;;;;0.57;0.57;;;16.90;98.20;;;;;;5075123;28;20204;-88
2023/05/28 06:26:50;;;;;;;1.35;0.70;;;16.90;98.50;;;;;;5076208;28;20685;-88
2023/05/28 06:29:22;;;;;;;0.40;0.40;;;16.90;99.00;;;;;;5074348;28;20271;-88
2023/05/28 06:31:57;;;;;;;0.85;0.60;;;16.90;98.60;;;;;;5074337;28;20191;-89
2023/05/28 06:34:29;;;;;;;4.25;1.35;;;16.90;98.50;;;;;;5087402;28;20203;-88
2023/05/28 06:37:02;;;;;;;1.13;0.70;;;16.90;99.00;;;;;;5074088;28;20199;-89
2023/05/28 06:39:34;;;;;;;1.23;0.70;;;16.90;98.50;;;;;;5079989;28;20263;-86
2023/05/28 06:42:05;;;;;;;1.10;0.70;;;16.90;99.10;;;;;;5082576;28;20199;-89
2023/05/28 06:44:36;;;;;;;0.80;0.80;;;16.90;98.90;;;;;;5073984;28;20239;-89
2023/05/28 06:47:13;;;;;;;2.42;1.20;;;16.90;99.20;;;;;;5067459;28;20200;-89
2023/05/28 06:49:44;;;;;;;0.93;0.70;;;16.80;99.40;;;;;;5075977;28;20220;-87
2023/05/28 06:52:16;;;;;;;1.52;1.20;;;16.80;99.30;;;;;;5084951;28;20200;-87
2023/05/28 06:54:48;;;;;;;2.13;1.10;;;16.80;99.40;;;;;;5085290;28;20211;-86
2023/05/28 06:57:20;;;;;;;2.08;1.02;;;16.80;99.80;;;;;;5080495;28;20538;-86
2023/05/28 06:59:53;;;;;;;2.33;1.10;;;16.80;99.90;;;;;;5083380;28;20200;-86
2023/05/28 07:02:28;;;;;;;1.73;1.63;;;16.80;99.80;;;;;;5079491;28;20218;-86
2023/05/28 07:04:59;;;;;;;2.95;1.45;;;16.70;99.90;;;;;;5076474;28;20196;-88
2023/05/28 07:07:30;;;;;;;1.85;1.65;;;16.70;99.90;;;;;;5074465;28;20603;-88
2023/05/28 07:10:01;;;;;;;2.03;1.58;;;16.60;99.90;;;;;;5074468;28;20224;-89
2023/05/28 07:12:34;;;;;;;2.45;1.60;;;16.60;99.90;;;;;;5072783;28;20200;-88
2023/05/28 07:15:06;;;;;;;4.10;2.83;;;16.50;99.90;;;;;;5074857;28;20204;-88
2023/05/28 07:17:43;;;;;;;2.40;1.70;;;16.50;99.90;;;;;;5075335;28;20613;-88
2023/05/28 07:20:16;;;;;;;5.20;1.80;;;16.50;99.90;;;;;;5075182;28;20207;-88
2023/05/28 07:22:48;;;;;;;4.22;1.90;;;16.50;99.90;;;;;;5073648;28;20659;-88
2023/05/28 07:25:19;;;;;;;2.85;1.50;;;16.40;99.90;;;;;;5073319;28;20188;-89
2023/05/28 07:27:50;;;;;;;5.53;2.05;;;16.40;99.90;;;;;;5073602;28;20211;-87
2023/05/28 07:30:23;;;;;;;2.97;1.95;;;16.30;99.90;;;;;;5073165;28;20236;-88
2023/05/28 07:32:57;;;;;;;2.03;1.67;;;16.30;99.90;;;;;;5073802;28;20196;-87
2023/05/28 07:35:28;;;;;;;2.15;1.60;;;16.30;99.90;;;;;;5074094;28;20695;-89
2023/05/28 07:37:59;;;;;;;2.58;1.48;;;16.20;99.90;;;;;;5073220;28;20195;-89
2023/05/28 07:40:31;;;;;;;1.27;1.08;;;16.20;99.90;;;;;;5074087;28;20222;-88
2023/05/28 07:43:03;;;;;;;3.08;1.33;;;16.20;99.90;;;;;;5077313;28;20559;-87
2023/05/28 07:45:34;;;;;;;1.52;1.10;;;16.10;99.90;;;;;;5075485;28;20202;-88
2023/05/28 07:48:08;;;;;;;4.25;2.50;;;16.10;99.90;;;;;;5074585;28;20202;-88
2023/05/28 07:50:39;;;;;;;3.75;2.20;;;16.10;99.90;;;;;;5074458;28;20229;-88
2023/05/28 07:53:11;;;;;;;2.42;1.40;;;16.10;99.90;;;;;;5074181;28;20204;-88
2023/05/28 07:55:45;;;;;;;4.78;2.35;;;16.10;99.90;;;;;;5073838;28;20290;-88
2023/05/28 07:58:17;;;;;;;2.58;1.40;;;16.00;99.90;;;;;;5073950;28;20655;-89
2023/05/28 08:00:48;;;;;;;2.63;1.70;;;16.00;99.90;;;;;;5081526;28;20619;-88
2023/05/28 08:03:22;;;;;;;3.53;2.25;;;16.00;99.90;;;;;;5082796;28;20192;-88
2023/05/28 08:05:53;;;;;;;4.57;1.92;;;15.90;99.90;;;;;;5073435;28;20350;-88
2023/05/28 08:08:24;;;;;;;3.08;1.58;;;15.90;99.90;;;;;;5073151;28;20586;-88
2023/05/28 08:10:58;;;;;;;2.35;1.83;;;15.90;99.90;;;;;;5072959;28;20224;-88
2023/05/28 08:13:29;;;;;;;2.92;2.08;;;15.90;99.90;;;;;;5072413;28;20202;-89
2023/05/28 08:16:02;;;;;;;3.45;2.40;;;15.90;99.90;;;;;;5073494;28;20202;-88
2023/05/28 08:18:36;;;;;;;4.20;2.05;;;15.80;99.90;;;;;;5073685;28;20200;-88
2023/05/28 08:21:08;;;;;;;3.38;2.40;;;15.80;99.90;;;;;;5072534;28;20206;-88
2023/05/28 08:23:39;;;;;;;3.55;2.55;;;15.80;99.90;;;;;;5072346;28;20199;-89
2023/05/28 08:26:11;;;;;;;4.13;3.20;;;15.80;99.90;;;;;;5072910;28;20200;-87
2023/05/28 08:28:45;;;;;;;4.35;3.13;;;15.80;99.90;;;;;;5072279;28;20562;-87
2023/05/28 08:31:19;;;;;;;5.63;3.35;;;15.70;99.90;;;;;;5072681;28;20223;-88
2023/05/28 08:33:54;;;;;;;4.32;3.25;;;15.70;99.90;;;;;;5072251;28;20198;-88
2023/05/28 08:36:26;;;;;;;3.88;2.83;;;15.70;99.90;;;;;;5072624;28;20191;-89
2023/05/28 08:38:57;;;;;;;6.47;3.10;;;15.60;99.90;;;;;;5072487;28;20196;-88
2023/05/28 08:41:33;;;;;;;3.47;2.38;;;15.60;99.90;;;;;;5083306;28;20409;-87
2023/05/28 08:44:04;;;;;;;4.53;2.90;;;15.60;99.90;;;;;;5073712;28;20225;-88
2023/05/28 08:46:35;;;;;;;5.18;3.70;;;15.60;99.90;;;;;;5072518;28;20210;-89
2023/05/28 08:49:09;;;;;;;5.47;3.40;;;15.60;99.90;;;;;;5072291;28;20196;-89
2023/05/28 08:51:42;;;;;;;3.97;3.20;;;15.50;99.90;;;;;;5071982;28;20235;-89
2023/05/28 08:54:13;;;;;;;5.03;3.65;;;15.50;99.90;;;;;;5071608;28;20184;-87
2023/05/28 08:56:46;;;;;;;3.97;2.90;;;15.50;99.90;;;;;;5071767;28;20196;-87
2023/05/28 08:59:18;;;;;;;3.35;2.70;;;15.40;99.90;;;;;;5071791;28;20651;-88
2023/05/28 09:01:52;;;;;;;6.03;3.60;;;15.50;99.90;;;;;;5071878;28;20659;-88
2023/05/28 09:04:25;;;;;;;11.45;10.25;;;15.50;99.90;;;;;;5072357;28;20223;-89
2023/05/28 09:07:01;;;;;;;17.10;13.98;;;15.40;99.90;;;;;;5072131;28;20216;-88
2023/05/28 09:09:32;;;;;;;8.35;7.30;;;15.30;99.90;;;;;;5071772;28;20264;-87
2023/05/28 09:12:08;;;;;;;6.75;4.40;;;15.30;99.90;;;;;;5072142;28;20204;-88
2023/05/28 09:14:44;;;;;;;5.95;3.60;;;15.20;99.90;;;;;;5072438;28;20195;-89
2023/05/28 09:17:17;;;;;;;4.60;3.50;;;15.20;99.90;;;;;;5082717;28;20287;-87
2023/05/28 09:20:02;;;;;;;4.75;3.35;;;15.10;99.90;;;;;;5078101;28;20678;-89
2023/05/28 09:22:34;;;;;;;5.47;3.42;;;15.10;99.90;;;;;;5087021;28;20199;-88
2023/05/28 09:25:06;;;;;;;4.65;4.05;;;15.10;99.90;;;;;;5077199;28;20192;-88
2023/05/28 09:27:39;;;;;;;6.85;5.25;;;15.00;99.90;;;;;;5076941;28;20706;-88
2023/05/28 09:30:11;;;;;;;8.45;5.72;;;15.00;99.90;;;;;;5075018;28;20239;-89
2023/05/28 09:32:49;;;;;;;8.75;6.85;;;14.90;99.90;;;;;;5079532;28;20200;-89
2023/05/28 09:35:27;;;;;;;11.88;10.60;;;14.90;99.90;;;;;;5080309;28;20562;-88
2023/05/28 09:38:06;;;;;;;9.70;8.40;;;14.80;99.90;;;;;;5080216;28;20207;-89
2023/05/28 09:40:42;;;;;;;38.38;32.80;;;14.70;99.90;;;;;;5076349;28;20573;-88
2023/05/28 09:43:13;;;;;;;31.73;25.33;;;14.70;99.90;;;;;;5076064;28;20203;-88
2023/05/28 09:45:44;;;;;;;12.40;9.88;;;14.60;99.90;;;;;;5075221;28;20291;-88
2023/05/28 09:48:17;;;;;;;10.40;8.18;;;14.60;99.90;;;;;;5075203;28;20635;-88
2023/05/28 09:50:51;;;;;;;11.25;8.82;;;14.50;99.90;;;;;;5074468;28;20311;-87
2023/05/28 09:53:25;;;;;;;10.02;7.68;;;14.50;99.90;;;;;;5076597;28;20219;-88
2023/05/28 09:56:08;;;;;;;8.00;5.88;;;14.50;99.90;;;;;;5084026;28;20203;-88
2023/05/28 09:58:42;;;;;;;5.22;4.57;;;14.40;99.90;;;;;;5080616;28;20547;-87
2023/05/28 10:01:18;;;;;;;6.40;4.57;;;14.50;99.90;;;;;;5084070;28;20202;-88
2023/05/28 10:03:51;;;;;;;6.28;4.97;;;14.50;99.90;;;;;;5080860;28;20200;-88
2023/05/28 10:06:31;;;;;;;4.70;3.72;;;14.40;99.90;;;;;;5082736;28;20207;-88
2023/05/28 10:09:06;;;;;;;5.65;4.20;;;14.40;99.90;;;;;;5080314;28;20666;-88
2023/05/28 10:11:49;;;;;;;6.35;4.05;;;14.40;99.90;;;;;;5077658;28;20219;-87
2023/05/28 10:14:27;;;;;;;6.45;5.07;;;14.40;99.90;;;;;;5078726;28;20184;-87
2023/05/28 10:17:07;;;;;;;5.22;4.03;;;14.40;99.90;;;;;;5079454;28;20187;-87
2023/05/28 10:19:43;;;;;;;4.47;3.70;;;14.40;99.90;;;;;;5081357;28;20200;-88
2023/05/28 10:22:22;;;;;;;6.47;3.65;;;14.40;99.90;;;;;;5077308;28;20239;-88
2023/05/28 10:24:53;;;;;;;5.25;3.78;;;14.50;99.90;;;;;;5080244;28;20283;-87
2023/05/28 10:27:35;;;;;;;5.60;4.28;;;14.40;99.90;;;;;;5080474;28;20596;-89
2023/05/28 10:30:12;;;;;;;7.25;5.10;;;14.40;99.90;;;;;;5079850;28;20258;-87
2023/05/28 10:32:47;;;;;;;6.65;5.45;;;14.40;99.90;;;;;;5082955;28;20203;-88
2023/05/28 10:35:20;;;;;;;4.53;3.72;;;14.40;99.90;;;;;;5078318;28;20567;-88
2023/05/28 10:38:11;;;;;;;4.32;3.28;;;14.30;99.90;;;;;;5078487;28;20278;-88
2023/05/28 10:40:48;;;;;;;3.83;3.10;;;14.30;99.90;;;;;;5077565;28;20238;-88
2023/05/28 10:43:45;;;;;;;20.17;12.60;;;14.40;99.90;;;;;;5083713;28;20180;-88
2023/05/28 10:46:21;;;;;;;14.95;11.10;;;14.30;99.90;;;;;;5083538;28;20200;-86
2023/05/28 10:49:23;;;;;;;9.68;6.57;;;14.30;99.90;;;;;;5089096;28;20229;-87
2023/05/28 10:52:04;;;;;;;6.50;4.45;;;14.40;99.90;;;;;;5091248;28;20254;-88
2023/05/28 10:54:55;;;;;;;7.72;5.32;;;14.30;99.90;;;;;;5089765;28;20261;-87
2023/05/28 10:57:28;;;;;;;10.60;8.43;;;14.30;99.90;;;;;;5089157;28;20181;-86
2023/05/28 11:00:10;;;;;;;10.18;7.90;;;14.20;99.90;;;;;;5090465;28;20303;-87
2023/05/28 11:02:52;;;;;;;10.73;6.55;;;14.10;99.90;;;;;;5091580;28;20268;-87
2023/05/28 11:05:30;;;;;;;5.53;4.53;;;14.10;99.90;;;;;;5091275;28;20222;-86
2023/05/28 11:08:08;;;;;;;5.47;4.40;;;14.10;99.90;;;;;;5080847;28;20224;-86
2023/05/28 11:10:41;;;;;;;5.30;4.30;;;14.10;99.90;;;;;;5080194;28;20226;-88
2023/05/28 11:19:16;;;;;;;4.72;4.00;;;14.10;99.90;;;;;;5085407;28;20223;-88
2023/05/28 11:22:00;;;;;;;4.03;3.13;;;14.10;99.90;;;;;;5081522;28;20202;-88
2023/05/28 11:24:39;;;;;;;4.95;3.80;;;14.10;99.90;;;;;;5081520;28;20691;-88
2023/05/28 11:30:11;;;;;;;4.97;3.40;;;14.00;99.90;;;;;;5085076;28;20235;-87
2023/05/28 11:32:51;;;;;;;4.07;3.15;;;14.00;99.90;;;;;;5081935;28;20671;-87
2023/05/28 11:35:22;;;;;;;3.75;3.20;;;14.00;99.90;;;;;;5077689;28;20650;-88
2023/05/28 11:37:59;;;;;;;3.75;2.78;;;14.00;99.90;;;;;;5083759;28;20214;-88
2023/05/28 11:40:37;;;;;;;4.38;3.00;;;13.90;99.90;;;;;;5081587;28;20670;-86
2023/05/28 11:43:11;;;;;;;5.47;3.60;;;13.90;99.90;;;;;;5080829;28;20199;-87
2023/05/28 11:45:44;;;;;;;4.13;3.47;;;13.80;99.90;;;;;;5078321;28;20742;-88
2023/05/28 11:48:20;;;;;;;3.88;3.40;;;13.70;99.90;;;;;;5078962;28;20195;-88
2023/05/28 11:50:59;;;;;;;4.25;2.70;;;13.80;99.90;;;;;;5076134;28;20238;-88
2023/05/28 11:53:44;;;;;;;2.78;2.40;;;13.70;99.90;;;;;;5085267;28;20226;-88
2023/05/28 11:56:20;;;;;;;2.90;2.42;;;13.80;99.90;;;;;;5079763;28;20208;-88
2023/05/28 11:58:56;;;;;;;4.07;2.70;;;13.70;99.90;;;;;;5080594;28;20187;-88
2023/05/28 12:01:36;;;;;;;2.75;2.17;;;13.80;99.90;;;;;;5079374;28;20195;-89
2023/05/28 12:04:10;;;;;;;2.78;2.13;;;13.70;99.90;;;;;;5081920;28;20206;-87
2023/05/28 12:06:54;;;;;;;2.92;2.28;;;13.70;99.90;;;;;;5089163;28;20196;-87
2023/05/28 12:09:25;;;;;;;3.33;2.40;;;13.80;99.90;;;;;;5079271;28;20625;-88
2023/05/28 12:12:12;;;;;;;2.40;2.20;;;13.70;99.90;;;;;;5078771;28;20212;-87
2023/05/28 12:14:50;;;;;;;3.67;2.50;;;13.80;99.90;;;;;;5079683;28;20219;-88
2023/05/28 12:17:21;;;;;;;4.28;2.17;;;13.80;99.90;;;;;;5077882;28;20241;-88
2023/05/28 12:19:56;;;;;;;2.38;2.00;;;13.80;99.90;;;;;;5081156;28;20200;-88
2023/05/28 12:22:36;;;;;;;2.90;2.15;;;13.80;99.90;;;;;;5078475;28;20196;-89
2023/05/28 12:25:10;;;;;;;2.00;1.80;;;13.80;99.90;;;;;;5078317;28;20210;-87
2023/05/28 12:27:45;;;;;;;4.20;1.80;;;13.80;99.90;;;;;;5079612;28;20195;-88
2023/05/28 12:30:28;;;;;;;2.63;1.67;;;13.70;99.90;;;;;;5079935;28;20309;-87
2023/05/28 12:35:47;;;;;;;3.72;2.20;;;13.80;99.90;;;;;;5076833;28;20200;-89
2023/05/28 12:38:32;;;;;;;2.53;1.88;;;13.80;99.90;;;;;;5078347;28;20234;-88
2023/05/28 12:41:10;;;;;;;2.58;1.95;;;13.80;99.90;;;;;;5077767;28;20195;-88
2023/05/28 12:43:42;;;;;;;2.92;1.95;;;13.70;99.90;;;;;;5077332;28;20200;-86
2023/05/28 12:46:17;;;;;;;2.70;2.00;;;13.70;99.90;;;;;;5078034;28;20286;-86
2023/05/28 12:48:48;;;;;;;2.65;1.73;;;13.60;99.90;;;;;;5078580;28;20203;-88
2023/05/28 12:51:19;;;;;;;2.10;1.90;;;13.60;99.90;;;;;;5079666;28;20220;-87
2023/05/28 12:53:54;;;;;;;1.77;1.60;;;13.50;99.90;;;;;;5080601;28;20188;-88
2023/05/28 12:56:29;;;;;;;1.40;1.30;;;13.60;99.90;;;;;;5080586;28;20198;-89
2023/05/28 12:59:04;;;;;;;1.80;1.60;;;13.50;99.90;;;;;;5082657;28;20669;-89
2023/05/28 13:01:41;;;;;;;2.38;1.58;;;13.50;99.90;;;;;;5082480;28;20207;-89
2023/05/28 13:04:17;;;;;;;1.70;1.50;;;13.50;99.90;;;;;;5084197;28;20631;-89
2023/05/28 13:06:51;;;;;;;1.58;1.30;;;13.60;99.90;;;;;;5085261;28;20275;-89
2023/05/28 13:09:25;;;;;;;1.67;1.58;;;13.60;99.90;;;;;;5085185;28;20265;-88
2023/05/28 13:12:01;;;;;;;1.45;1.33;;;13.60;99.90;;;;;;5082843;28;20315;-89
2023/05/28 13:14:39;;;;;;;1.85;1.40;;;13.60;99.90;;;;;;5094372;28;20712;-89
2023/05/28 13:17:15;;;;;;;2.20;1.30;;;13.60;99.90;;;;;;5080993;28;20191;-89
2023/05/28 13:19:48;;;;;;;1.50;1.40;;;13.60;99.90;;;;;;5077727;28;20212;-88
2023/05/28 13:22:19;;;;;;;1.83;1.50;;;13.60;99.90;;;;;;5078996;28;20200;-89
2023/05/28 13:24:51;;;;;;;1.50;1.40;;;13.60;99.90;;;;;;5076718;28;20198;-89
2023/05/28 13:27:22;;;;;;;1.98;1.33;;;13.50;99.90;;;;;;5084657;28;20196;-88
2023/05/28 13:29:53;;;;;;;2.05;1.40;;;13.60;99.90;;;;;;5079748;28;20228;-89
2023/05/28 13:32:27;;;;;;;1.50;1.40;;;13.60;99.90;;;;;;5077683;28;20298;-88
2023/05/28 13:34:59;;;;;;;1.67;1.30;;;13.50;99.90;;;;;;5058798;28;20197;-88